MTN2674 TISX-TJSJ
Flight info
| Callsign | MTN2674 |
|---|---|
| Flight time | 0h 29m |
| Altitude | FL160 |
| Route | HMLTN9 STT RTE2 SJU DCT TJSJ/10 |
| Aircraft | B738/M-S/N |
Departure
| Time | 2026-04-24 14:11 |
|---|---|
| Airport | Henry E. Rohlsen Airport (TISX) |
Arrival
| Time | 2026-04-24 14:40 |
|---|---|
| Airport | Luis Munoz Marin International Airport (TJSJ) |
| Time | Latitude | Longitude | Altitude | Speed | Heading |
|---|---|---|---|---|---|
| 2026-04-24 13:45 | 17.69997 | -64.79626 | 51 ft | 0 kts | 174° |
| 2026-04-24 14:02 | 17.69996 | -64.79626 | 53 ft | 0 kts | 174° |
| 2026-04-24 14:03 | 17.70006 | -64.79627 | 53 ft | 2 kts | 181° |
| 2026-04-24 14:03 | 17.70017 | -64.79620 | 53 ft | 2 kts | 249° |
| 2026-04-24 14:03 | 17.70018 | -64.79617 | 54 ft | 0 kts | 259° |
| 2026-04-24 14:07 | 17.70019 | -64.79673 | 54 ft | 20 kts | 277° |
| 2026-04-24 14:07 | 17.70040 | -64.79868 | 57 ft | 38 kts | 267° |
| 2026-04-24 14:08 | 17.70016 | -64.80160 | 59 ft | 39 kts | 265° |
| 2026-04-24 14:08 | 17.69988 | -64.80430 | 67 ft | 35 kts | 265° |
| 2026-04-24 14:08 | 17.69962 | -64.80668 | 74 ft | 31 kts | 261° |
| 2026-04-24 14:08 | 17.69936 | -64.80880 | 77 ft | 28 kts | 264° |
| 2026-04-24 14:09 | 17.69921 | -64.81074 | 81 ft | 25 kts | 264° |
| 2026-04-24 14:09 | 17.69909 | -64.81246 | 84 ft | 22 kts | 266° |
| 2026-04-24 14:09 | 17.69893 | -64.81398 | 86 ft | 20 kts | 263° |
| 2026-04-24 14:09 | 17.69879 | -64.81528 | 88 ft | 14 kts | 264° |
| 2026-04-24 14:10 | 17.69916 | -64.81599 | 89 ft | 9 kts | 343° |
| 2026-04-24 14:10 | 17.69975 | -64.81604 | 90 ft | 9 kts | 25° |
| 2026-04-24 14:10 | 17.70029 | -64.81458 | 90 ft | 44 kts | 85° |
| 2026-04-24 14:10 | 17.70094 | -64.80817 | 79 ft | 130 kts | 84° |
| 2026-04-24 14:11 | 17.70212 | -64.79643 | 263 ft | 182 kts | 85° |
| 2026-04-24 14:11 | 17.70308 | -64.78366 | 1335 ft | 178 kts | 84° |
| 2026-04-24 14:11 | 17.70853 | -64.75651 | 2701 ft | 210 kts | 63° |
| 2026-04-24 14:12 | 17.71572 | -64.74280 | 3385 ft | 224 kts | 61° |
| 2026-04-24 14:12 | 17.72517 | -64.72922 | 4065 ft | 239 kts | 47° |
| 2026-04-24 14:12 | 17.73915 | -64.71934 | 4842 ft | 251 kts | 22° |
| 2026-04-24 14:12 | 17.75675 | -64.71657 | 5653 ft | 264 kts | 357° |
| 2026-04-24 14:13 | 17.77511 | -64.72081 | 6321 ft | 280 kts | 339° |
| 2026-04-24 14:13 | 17.79291 | -64.72964 | 7170 ft | 287 kts | 333° |
| 2026-04-24 14:13 | 17.81030 | -64.73928 | 8066 ft | 290 kts | 332° |
| 2026-04-24 14:13 | 17.82823 | -64.74914 | 8954 ft | 294 kts | 333° |
| 2026-04-24 14:14 | 17.84649 | -64.75889 | 9833 ft | 298 kts | 333° |
| 2026-04-24 14:14 | 17.86518 | -64.76865 | 10587 ft | 306 kts | 333° |
| 2026-04-24 14:14 | 17.90523 | -64.78942 | 11682 ft | 335 kts | 333° |
| 2026-04-24 14:15 | 17.92668 | -64.80054 | 12195 ft | 350 kts | 333° |
| 2026-04-24 14:15 | 17.94923 | -64.81225 | 12667 ft | 365 kts | 333° |
| 2026-04-24 14:15 | 17.97244 | -64.82431 | 13207 ft | 377 kts | 333° |
| 2026-04-24 14:15 | 17.99613 | -64.83662 | 13972 ft | 380 kts | 333° |
| 2026-04-24 14:16 | 18.01995 | -64.84901 | 14740 ft | 383 kts | 332° |
| 2026-04-24 14:16 | 18.04389 | -64.86147 | 15459 ft | 386 kts | 332° |
| 2026-04-24 14:16 | 18.06710 | -64.87356 | 15847 ft | 390 kts | 332° |
| 2026-04-24 14:17 | 18.11604 | -64.89906 | 15956 ft | 389 kts | 332° |
| 2026-04-24 14:17 | 18.14023 | -64.91167 | 15948 ft | 389 kts | 332° |
| 2026-04-24 14:17 | 18.18868 | -64.93698 | 15957 ft | 389 kts | 332° |
| 2026-04-24 14:18 | 18.21287 | -64.94962 | 15924 ft | 388 kts | 332° |
| 2026-04-24 14:18 | 18.23706 | -64.96225 | 15944 ft | 388 kts | 332° |
| 2026-04-24 14:18 | 18.26132 | -64.97493 | 15951 ft | 389 kts | 332° |
| 2026-04-24 14:18 | 18.28569 | -64.98768 | 15951 ft | 389 kts | 332° |
| 2026-04-24 14:19 | 18.30177 | -64.99609 | 15953 ft | 389 kts | 332° |
| 2026-04-24 14:19 | 18.33365 | -65.01394 | 15952 ft | 387 kts | 326° |
| 2026-04-24 14:19 | 18.35473 | -65.03124 | 15952 ft | 385 kts | 314° |
| 2026-04-24 14:19 | 18.37153 | -65.05298 | 15967 ft | 383 kts | 303° |
| 2026-04-24 14:20 | 18.38559 | -65.07681 | 15949 ft | 384 kts | 299° |
| 2026-04-24 14:20 | 18.39871 | -65.10121 | 15946 ft | 384 kts | 298° |
| 2026-04-24 14:20 | 18.41161 | -65.12595 | 15955 ft | 383 kts | 297° |
| 2026-04-24 14:20 | 18.42436 | -65.15047 | 15964 ft | 383 kts | 297° |
| 2026-04-24 14:21 | 18.43722 | -65.17495 | 15951 ft | 383 kts | 298° |
| 2026-04-24 14:21 | 18.45013 | -65.19931 | 15959 ft | 382 kts | 298° |
| 2026-04-24 14:21 | 18.46316 | -65.22372 | 15963 ft | 383 kts | 298° |
| 2026-04-24 14:21 | 18.47578 | -65.24822 | 15949 ft | 381 kts | 295° |
| 2026-04-24 14:22 | 18.48549 | -65.27402 | 15943 ft | 382 kts | 285° |
| 2026-04-24 14:22 | 18.48997 | -65.30154 | 15942 ft | 380 kts | 273° |
| 2026-04-24 14:22 | 18.48872 | -65.35691 | 15946 ft | 382 kts | 266° |
| 2026-04-24 14:23 | 18.48670 | -65.38486 | 15937 ft | 385 kts | 265° |
| 2026-04-24 14:23 | 18.48450 | -65.41312 | 15938 ft | 390 kts | 265° |
| 2026-04-24 14:23 | 18.48236 | -65.44157 | 15795 ft | 388 kts | 266° |
| 2026-04-24 14:23 | 18.48037 | -65.46937 | 15515 ft | 376 kts | 266° |
| 2026-04-24 14:24 | 18.47851 | -65.49669 | 15056 ft | 370 kts | 266° |
| 2026-04-24 14:24 | 18.47675 | -65.52351 | 14464 ft | 368 kts | 266° |
| 2026-04-24 14:24 | 18.47503 | -65.55022 | 13835 ft | 367 kts | 266° |
| 2026-04-24 14:24 | 18.47332 | -65.57682 | 13209 ft | 365 kts | 266° |
| 2026-04-24 14:25 | 18.47162 | -65.60336 | 12560 ft | 365 kts | 265° |
| 2026-04-24 14:25 | 18.46991 | -65.62984 | 11907 ft | 364 kts | 265° |
| 2026-04-24 14:25 | 18.46820 | -65.65629 | 11310 ft | 362 kts | 265° |
| 2026-04-24 14:25 | 18.46650 | -65.68253 | 10946 ft | 352 kts | 265° |
| 2026-04-24 14:26 | 18.46487 | -65.70773 | 10760 ft | 340 kts | 265° |
| 2026-04-24 14:26 | 18.46328 | -65.73212 | 10607 ft | 329 kts | 265° |
| 2026-04-24 14:26 | 18.46174 | -65.75573 | 10444 ft | 319 kts | 265° |
| 2026-04-24 14:26 | 18.46025 | -65.77858 | 10281 ft | 309 kts | 265° |
| 2026-04-24 14:27 | 18.45879 | -65.80077 | 10135 ft | 299 kts | 265° |
| 2026-04-24 14:27 | 18.45737 | -65.82230 | 9907 ft | 293 kts | 265° |
| 2026-04-24 14:27 | 18.45604 | -65.84238 | 9660 ft | 288 kts | 265° |
| 2026-04-24 14:27 | 18.45466 | -65.86331 | 9289 ft | 287 kts | 265° |
| 2026-04-24 14:28 | 18.45329 | -65.88406 | 8927 ft | 285 kts | 265° |
| 2026-04-24 14:28 | 18.45193 | -65.90476 | 8569 ft | 284 kts | 265° |
| 2026-04-24 14:28 | 18.45057 | -65.92530 | 8227 ft | 281 kts | 265° |
| 2026-04-24 14:28 | 18.44922 | -65.94570 | 7866 ft | 280 kts | 265° |
| 2026-04-24 14:29 | 18.44788 | -65.96600 | 7514 ft | 278 kts | 265° |
| 2026-04-24 14:29 | 18.44652 | -65.98632 | 7159 ft | 277 kts | 265° |
| 2026-04-24 14:29 | 18.44523 | -66.00649 | 6759 ft | 277 kts | 265° |
| 2026-04-24 14:29 | 18.44405 | -66.02663 | 6408 ft | 276 kts | 265° |
| 2026-04-24 14:30 | 18.44330 | -66.03992 | 6174 ft | 275 kts | 265° |
| 2026-04-24 14:30 | 18.44177 | -66.06651 | 5713 ft | 273 kts | 265° |
| 2026-04-24 14:30 | 18.44061 | -66.08630 | 5371 ft | 271 kts | 265° |
| 2026-04-24 14:30 | 18.43947 | -66.10596 | 5024 ft | 270 kts | 265° |
| 2026-04-24 14:31 | 18.43848 | -66.12569 | 4681 ft | 268 kts | 271° |
| 2026-04-24 14:31 | 18.44306 | -66.14428 | 4399 ft | 263 kts | 302° |
| 2026-04-24 14:31 | 18.45447 | -66.15857 | 4295 ft | 251 kts | 316° |
| 2026-04-24 14:31 | 18.46695 | -66.17104 | 4061 ft | 246 kts | 317° |
| 2026-04-24 14:32 | 18.47934 | -66.18319 | 3882 ft | 238 kts | 317° |
| 2026-04-24 14:32 | 18.49107 | -66.19473 | 3823 ft | 225 kts | 317° |
| 2026-04-24 14:32 | 18.50214 | -66.20581 | 3681 ft | 216 kts | 313° |
| 2026-04-24 14:32 | 18.50940 | -66.21937 | 3441 ft | 213 kts | 281° |
| 2026-04-24 14:33 | 18.50836 | -66.23444 | 3187 ft | 208 kts | 245° |
| 2026-04-24 14:33 | 18.49945 | -66.24582 | 2922 ft | 202 kts | 208° |
| 2026-04-24 14:33 | 18.48630 | -66.24937 | 2654 ft | 194 kts | 171° |
| 2026-04-24 14:33 | 18.47478 | -66.24407 | 2491 ft | 175 kts | 132° |
| 2026-04-24 14:34 | 18.46800 | -66.23386 | 2285 ft | 169 kts | 125° |
| 2026-04-24 14:34 | 18.45994 | -66.22499 | 2220 ft | 167 kts | 137° |
| 2026-04-24 14:34 | 18.45097 | -66.21678 | 2252 ft | 167 kts | 137° |
| 2026-04-24 14:34 | 18.44263 | -66.20906 | 2254 ft | 157 kts | 136° |
| 2026-04-24 14:35 | 18.43477 | -66.20117 | 2257 ft | 155 kts | 122° |
| 2026-04-24 14:35 | 18.43212 | -66.19076 | 2285 ft | 152 kts | 84° |
| 2026-04-24 14:35 | 18.43370 | -66.17994 | 2257 ft | 150 kts | 87° |
| 2026-04-24 14:35 | 18.43380 | -66.16895 | 2261 ft | 150 kts | 91° |
| 2026-04-24 14:36 | 18.43378 | -66.15802 | 2258 ft | 150 kts | 90° |
| 2026-04-24 14:36 | 18.43383 | -66.14702 | 2256 ft | 150 kts | 90° |
| 2026-04-24 14:36 | 18.43381 | -66.13603 | 2218 ft | 153 kts | 90° |
| 2026-04-24 14:36 | 18.43378 | -66.12497 | 2038 ft | 151 kts | 90° |
| 2026-04-24 14:37 | 18.43378 | -66.11423 | 1838 ft | 142 kts | 90° |
| 2026-04-24 14:37 | 18.43374 | -66.10412 | 1693 ft | 137 kts | 90° |
| 2026-04-24 14:37 | 18.43373 | -66.09407 | 1477 ft | 138 kts | 90° |
| 2026-04-24 14:37 | 18.43371 | -66.08405 | 1305 ft | 137 kts | 90° |
| 2026-04-24 14:38 | 18.43366 | -66.07388 | 1122 ft | 139 kts | 90° |
| 2026-04-24 14:38 | 18.43367 | -66.06381 | 947 ft | 139 kts | 90° |
| 2026-04-24 14:38 | 18.43365 | -66.05401 | 769 ft | 138 kts | 90° |
| 2026-04-24 14:38 | 18.43362 | -66.04390 | 596 ft | 138 kts | 90° |
| 2026-04-24 14:39 | 18.43360 | -66.03385 | 421 ft | 137 kts | 90° |
| 2026-04-24 14:39 | 18.43381 | -66.02378 | 222 ft | 138 kts | 89° |
| 2026-04-24 14:39 | 18.43358 | -66.01373 | 41 ft | 139 kts | 92° |
| 2026-04-24 14:39 | 18.43335 | -66.00366 | 21 ft | 136 kts | 88° |
| 2026-04-24 14:40 | 18.43341 | -65.99488 | 21 ft | 76 kts | 90° |
| 2026-04-24 14:40 | 18.43339 | -65.99198 | 24 ft | 31 kts | 90° |
| 2026-04-24 14:40 | 18.43435 | -65.99095 | 24 ft | 21 kts | 317° |
| 2026-04-24 14:40 | 18.43470 | -65.99236 | 22 ft | 20 kts | 269° |
| 2026-04-24 14:41 | 18.43465 | -65.99379 | 21 ft | 19 kts | 268° |
| 2026-04-24 14:41 | 18.43460 | -65.99518 | 20 ft | 19 kts | 268° |
| 2026-04-24 14:41 | 18.43460 | -65.99650 | 20 ft | 17 kts | 270° |
| 2026-04-24 14:41 | 18.43461 | -65.99774 | 20 ft | 16 kts | 270° |
| 2026-04-24 14:42 | 18.43484 | -65.99889 | 20 ft | 16 kts | 315° |
| 2026-04-24 14:42 | 18.43548 | -65.99974 | 22 ft | 13 kts | 286° |
| 2026-04-24 14:42 | 18.43557 | -66.00046 | 25 ft | 9 kts | 275° |
| 2026-04-24 14:42 | 18.43557 | -66.00111 | 25 ft | 9 kts | 267° |
| 2026-04-24 14:43 | 18.43552 | -66.00174 | 24 ft | 8 kts | 266° |
| 2026-04-24 14:43 | 18.43578 | -66.00214 | 25 ft | 5 kts | 338° |
| 2026-04-24 14:43 | 18.43582 | -66.00215 | 25 ft | 0 kts | 344° |
| 2026-04-24 14:44 | 18.43603 | -66.00221 | 25 ft | 3 kts | 344° |
| 2026-04-24 14:44 | 18.43615 | -66.00225 | 26 ft | 1 kts | 344° |
| 2026-04-24 14:44 | 18.43619 | -66.00226 | 26 ft | 1 kts | 344° |
| 2026-04-24 14:44 | 18.43626 | -66.00228 | 26 ft | 0 kts | 344° |